createdAt,value
2018-06-13T00:02:01.497Z,69.17
2018-06-13T00:04:30.661Z,68.77
2018-06-13T00:06:59.603Z,68.70
2018-06-13T00:09:28.449Z,68.49
2018-06-13T00:11:57.376Z,68.83
2018-06-13T00:14:26.268Z,68.65
2018-06-13T00:16:55.436Z,68.62
2018-06-13T00:19:24.360Z,68.43
2018-06-13T00:21:53.263Z,68.34
2018-06-13T00:24:22.260Z,68.67
2018-06-13T00:26:51.189Z,68.43
2018-06-13T00:29:20.292Z,68.29
2018-06-13T00:31:49.237Z,68.59
2018-06-13T00:34:18.189Z,68.94
2018-06-13T00:36:47.138Z,69.06
2018-06-13T00:39:15.949Z,68.95
2018-06-13T00:41:44.901Z,68.50
2018-06-13T00:44:13.908Z,69.39
2018-06-13T00:46:43.030Z,68.98
2018-06-13T00:49:11.996Z,69.27
2018-06-13T00:51:40.859Z,69.33
2018-06-13T00:54:09.965Z,69.35
2018-06-13T00:56:38.817Z,69.08
2018-06-13T00:59:07.897Z,69.20
2018-06-13T01:01:37.052Z,69.64
2018-06-13T01:04:06.045Z,68.63
2018-06-13T01:06:35.356Z,68.79
2018-06-13T01:09:05.112Z,68.63
2018-06-13T01:11:33.987Z,68.82
2018-06-13T01:14:03.040Z,68.72
2018-06-13T01:16:31.897Z,69.31
2018-06-13T01:19:01.081Z,69.12
2018-06-13T01:21:30.109Z,68.96
2018-06-13T01:23:59.097Z,69.56
2018-06-13T01:26:28.120Z,69.35
2018-06-13T01:28:57.044Z,69.41
2018-06-13T01:31:26.141Z,69.91
2018-06-13T01:33:55.076Z,68.86
2018-06-13T01:36:29.808Z,69.23
2018-06-13T01:38:58.787Z,68.41
2018-06-13T01:41:27.675Z,69.34
2018-06-13T01:43:56.820Z,68.56
2018-06-13T01:46:25.720Z,69.14
2018-06-13T01:48:55.235Z,69.45
2018-06-13T01:51:24.373Z,69.38
2018-06-13T01:53:53.361Z,68.76
2018-06-13T01:56:22.269Z,69.08
2018-06-13T01:58:51.208Z,68.37
2018-06-13T02:01:20.409Z,67.91
2018-06-13T02:03:49.440Z,67.85
2018-06-13T02:06:18.323Z,66.96
2018-06-13T02:08:47.340Z,67.78
2018-06-13T02:11:16.322Z,67.14
2018-06-13T02:13:45.368Z,66.85
2018-06-13T02:16:14.312Z,67.07
2018-06-13T02:18:43.205Z,66.71
2018-06-13T02:21:12.183Z,66.68
2018-06-13T02:23:41.049Z,66.54
2018-06-13T02:26:09.876Z,66.30
2018-06-13T02:28:38.872Z,66.42
2018-06-13T02:31:08.017Z,66.45
2018-06-13T02:33:37.045Z,66.02
2018-06-13T02:36:06.040Z,66.11
2018-06-13T02:38:35.073Z,65.63
2018-06-13T02:41:03.981Z,65.36
2018-06-13T02:43:33.076Z,65.37
2018-06-13T02:46:02.136Z,64.84
2018-06-13T02:48:31.110Z,65.62
2018-06-13T02:51:00.077Z,64.93
2018-06-13T02:53:29.037Z,64.44
2018-06-13T02:55:58.038Z,65.27
2018-06-13T02:58:26.992Z,64.87
2018-06-13T03:00:56.141Z,64.54
2018-06-13T03:03:25.245Z,65.42
2018-06-13T03:05:54.273Z,63.98
2018-06-13T03:08:23.208Z,65.11
2018-06-13T03:10:52.273Z,64.51
2018-06-13T03:13:21.400Z,64.76
2018-06-13T03:15:50.360Z,64.80
2018-06-13T03:18:19.428Z,64.73
2018-06-13T03:20:48.432Z,64.86
2018-06-13T03:23:17.329Z,64.54
2018-06-13T03:25:46.213Z,64.29
2018-06-13T03:28:15.433Z,64.68
2018-06-13T03:30:44.396Z,64.84
2018-06-13T03:33:13.456Z,64.00
2018-06-13T03:35:42.392Z,64.43
2018-06-13T03:38:11.324Z,64.68
2018-06-13T03:40:40.184Z,64.67
2018-06-13T03:43:09.058Z,64.69
2018-06-13T03:45:38.028Z,65.06
2018-06-13T03:48:07.062Z,64.94
2018-06-13T03:50:36.045Z,64.70
2018-06-13T03:53:05.293Z,64.29
2018-06-13T03:55:34.225Z,64.76
2018-06-13T03:58:03.126Z,64.66
2018-06-13T04:00:32.148Z,65.13
2018-06-13T04:03:01.096Z,64.57
2018-06-13T04:05:30.461Z,64.74
2018-06-13T04:07:59.533Z,64.70
2018-06-13T04:10:28.496Z,65.06
2018-06-13T04:12:57.395Z,65.09
2018-06-13T04:15:26.344Z,65.63
2018-06-13T04:17:55.266Z,65.32
2018-06-13T04:20:24.152Z,64.78
2018-06-13T04:22:53.248Z,65.62
2018-06-13T04:25:22.262Z,64.90
2018-06-13T04:27:51.232Z,64.98
2018-06-13T04:30:20.428Z,65.10
2018-06-13T04:32:49.297Z,64.68
2018-06-13T04:35:18.281Z,65.81
2018-06-13T04:37:47.308Z,65.41
2018-06-13T04:40:16.168Z,65.17
2018-06-13T04:42:45.252Z,65.42
2018-06-13T04:45:14.252Z,65.27
2018-06-13T04:47:43.081Z,64.82
2018-06-13T04:50:11.857Z,65.31
2018-06-13T04:52:40.876Z,64.84
2018-06-13T04:55:09.748Z,64.87
2018-06-13T04:57:38.503Z,64.94
2018-06-13T05:00:07.405Z,64.71
2018-06-13T05:02:36.303Z,65.22
2018-06-13T05:05:05.224Z,65.27
2018-06-13T05:07:34.268Z,65.12
2018-06-13T05:10:04.005Z,65.02
2018-06-13T05:12:32.768Z,65.12
2018-06-13T05:15:01.626Z,64.80
2018-06-13T05:17:30.573Z,65.17
2018-06-13T05:19:59.512Z,64.85
2018-06-13T05:22:28.368Z,64.97
2018-06-13T05:24:57.234Z,64.28
2018-06-13T05:27:26.137Z,64.27
2018-06-13T05:29:54.909Z,64.98
2018-06-13T05:32:23.996Z,64.44
2018-06-13T05:34:52.972Z,64.29
2018-06-13T05:37:22.065Z,64.26
2018-06-13T05:39:50.876Z,63.51
2018-06-13T05:42:19.860Z,63.10
2018-06-13T05:44:49.027Z,63.39
2018-06-13T05:47:17.834Z,63.24
2018-06-13T05:49:46.771Z,63.29
2018-06-13T05:52:15.552Z,62.83
2018-06-13T05:54:44.468Z,63.20
2018-06-13T05:57:15.346Z,62.91
2018-06-13T05:59:44.277Z,62.66
2018-06-13T06:02:13.189Z,61.99
2018-06-13T06:04:42.097Z,62.45
2018-06-13T06:07:10.853Z,62.55
2018-06-13T06:09:43.279Z,62.33
2018-06-13T06:12:14.885Z,61.13
2018-06-13T06:14:46.130Z,60.82
2018-06-13T06:17:17.288Z,61.17
2018-06-13T06:19:48.051Z,60.54
2018-06-13T06:22:16.903Z,59.85
2018-06-13T06:24:46.712Z,58.85
2018-06-13T06:27:19.137Z,58.97
2018-06-13T06:29:50.760Z,57.70
2018-06-13T06:32:22.209Z,57.67
2018-06-13T06:34:51.753Z,58.27
2018-06-13T06:37:22.541Z,57.52
2018-06-13T06:39:53.732Z,57.99
2018-06-13T06:42:23.441Z,58.05
2018-06-13T06:44:54.301Z,58.37
2018-06-13T06:47:23.292Z,58.03
2018-06-13T06:49:54.521Z,58.56
2018-06-13T06:52:23.333Z,58.87
2018-06-13T06:54:54.624Z,59.11
2018-06-13T06:57:24.476Z,59.39
2018-06-13T06:59:54.376Z,59.29
2018-06-13T07:02:24.211Z,59.22
2018-06-13T07:04:53.628Z,58.42
2018-06-13T07:07:23.328Z,59.04
2018-06-13T07:09:53.428Z,59.41
2018-06-13T07:12:22.895Z,58.96
2018-06-13T07:14:52.838Z,58.45
2018-06-13T07:17:22.476Z,57.40
2018-06-13T07:19:52.118Z,57.91
2018-06-13T07:22:20.892Z,56.12
2018-06-13T07:24:49.846Z,56.89
2018-06-13T07:27:18.521Z,56.22
2018-06-13T07:29:47.260Z,56.57
2018-06-13T07:32:16.197Z,55.70
2018-06-13T07:34:45.121Z,56.47
2018-06-13T07:37:14.021Z,54.85
2018-06-13T07:39:42.764Z,55.02
2018-06-13T07:42:11.601Z,54.69
2018-06-13T07:44:40.289Z,54.54
2018-06-13T07:47:09.036Z,54.30
2018-06-13T07:49:37.865Z,52.95
2018-06-13T07:52:06.756Z,52.98
2018-06-13T07:54:35.560Z,51.70
2018-06-13T07:57:04.386Z,51.22
2018-06-13T07:59:33.176Z,49.76
2018-06-13T08:02:01.985Z,49.23
2018-06-13T08:04:30.759Z,48.56
2018-06-13T08:06:59.593Z,47.27
2018-06-13T08:09:28.430Z,48.06
2018-06-13T08:11:57.323Z,46.23
2018-06-13T08:14:26.044Z,47.09
2018-06-13T08:16:54.811Z,46.18
2018-06-13T08:19:23.617Z,44.21
2018-06-13T08:21:52.407Z,43.25
2018-06-13T08:24:21.160Z,42.67
2018-06-13T08:26:54.813Z,41.59
2018-06-13T08:29:24.057Z,42.14
2018-06-13T08:31:52.792Z,42.52
2018-06-13T08:34:21.737Z,43.08
2018-06-13T08:36:50.538Z,43.56
2018-06-13T08:39:19.352Z,42.63
2018-06-13T08:41:48.209Z,42.58
2018-06-13T08:44:17.041Z,43.32
2018-06-13T08:46:45.888Z,42.66
2018-06-13T08:49:14.677Z,42.29
2018-06-13T08:51:43.596Z,38.90
2018-06-13T08:54:12.392Z,37.64
2018-06-13T08:56:41.360Z,38.01
2018-06-13T08:59:10.164Z,35.98
2018-06-13T09:01:38.929Z,36.58
2018-06-13T09:04:07.649Z,39.14
2018-06-13T09:06:36.381Z,39.11
2018-06-13T09:09:07.570Z,40.07
2018-06-13T09:11:37.009Z,40.82
2018-06-13T09:14:06.233Z,42.08
2018-06-13T09:16:34.993Z,42.24
2018-06-13T09:19:03.697Z,41.39
2018-06-13T09:21:32.829Z,43.21
2018-06-13T09:24:01.637Z,43.88
2018-06-13T09:26:30.409Z,42.92
2018-06-13T09:28:59.209Z,41.13
2018-06-13T09:31:28.061Z,43.69
2018-06-13T09:33:56.893Z,43.94
2018-06-13T09:36:25.678Z,44.59
2018-06-13T09:38:54.373Z,45.74
2018-06-13T09:41:23.169Z,45.10
2018-06-13T09:43:52.036Z,44.87
2018-06-13T09:46:21.013Z,45.11
2018-06-13T09:48:49.781Z,43.54
2018-06-13T09:51:18.477Z,45.76
2018-06-13T09:53:47.300Z,44.28
2018-06-13T09:56:16.064Z,44.14
2018-06-13T09:58:50.272Z,44.02
2018-06-13T10:01:24.205Z,44.03
2018-06-13T10:03:53.172Z,43.67
2018-06-13T10:06:21.896Z,42.75
2018-06-13T10:08:50.590Z,42.00
2018-06-13T10:11:19.495Z,41.33
2018-06-13T10:13:48.221Z,40.88
2018-06-13T10:16:18.202Z,40.73
2018-06-13T10:18:47.017Z,38.59
2018-06-13T10:21:15.810Z,38.80
2018-06-13T10:23:44.721Z,39.10
2018-06-13T10:26:13.609Z,36.89
2018-06-13T10:28:42.422Z,36.69
2018-06-13T10:31:11.109Z,36.15
2018-06-13T10:33:40.073Z,35.97
2018-06-13T10:36:08.897Z,36.54
2018-06-13T10:38:37.576Z,37.04
2018-06-13T10:41:06.304Z,36.29
2018-06-13T10:43:35.034Z,37.54
2018-06-13T10:46:03.921Z,36.90
2018-06-13T10:48:32.652Z,37.64
2018-06-13T10:51:01.364Z,38.56
2018-06-13T10:53:30.093Z,37.64
2018-06-13T10:55:58.781Z,38.46
2018-06-13T10:58:27.644Z,37.26
2018-06-13T11:00:56.425Z,37.16
2018-06-13T11:03:25.120Z,37.37
2018-06-13T11:05:53.878Z,36.42
2018-06-13T11:08:22.599Z,36.53
2018-06-13T11:10:51.513Z,35.79
2018-06-13T11:13:20.261Z,36.37
2018-06-13T11:15:51.518Z,36.63
2018-06-13T11:18:20.253Z,36.43
2018-06-13T11:20:48.961Z,36.43
2018-06-13T11:23:17.690Z,37.76
2018-06-13T11:25:46.392Z,36.90
2018-06-13T11:28:15.164Z,37.22
2018-06-13T11:30:44.340Z,37.00
2018-06-13T11:33:18.660Z,37.76
2018-06-13T11:35:47.373Z,36.22
2018-06-13T11:38:16.081Z,36.31
2018-06-13T11:40:44.980Z,37.39
2018-06-13T11:43:14.230Z,37.78
2018-06-13T11:45:42.997Z,38.36
2018-06-13T11:48:11.716Z,38.47
2018-06-13T11:50:40.382Z,37.08
2018-06-13T11:53:09.104Z,36.23
2018-06-13T11:55:37.795Z,36.12
2018-06-13T11:58:06.791Z,37.42
2018-06-13T12:00:35.492Z,37.32
2018-06-13T12:03:04.197Z,36.96
2018-06-13T12:05:32.952Z,37.34
2018-06-13T12:08:01.698Z,38.76
2018-06-13T12:10:30.788Z,39.49
2018-06-13T12:12:59.780Z,39.70
2018-06-13T12:15:28.797Z,40.19
2018-06-13T12:17:57.614Z,40.37
2018-06-13T12:20:26.492Z,40.91
2018-06-13T12:22:55.477Z,40.48
2018-06-13T12:25:24.267Z,41.47
2018-06-13T12:27:53.732Z,42.00
2018-06-13T12:30:22.579Z,42.50
2018-06-13T12:32:51.410Z,42.44
2018-06-13T12:35:20.405Z,43.84
2018-06-13T12:37:49.297Z,44.13
2018-06-13T12:40:18.266Z,44.29
2018-06-13T12:42:47.131Z,44.86
2018-06-13T12:45:15.821Z,43.65
2018-06-13T12:47:44.981Z,44.02
2018-06-13T12:50:13.886Z,43.34
2018-06-13T12:52:42.643Z,44.79
2018-06-13T12:55:11.470Z,43.48
2018-06-13T12:57:40.181Z,43.83
2018-06-13T13:00:09.292Z,43.23
2018-06-13T13:02:38.207Z,43.75
2018-06-13T13:05:07.149Z,42.30
2018-06-13T13:07:35.918Z,42.51
2018-06-13T13:10:05.031Z,41.06
2018-06-13T13:12:33.933Z,40.55
2018-06-13T13:15:02.654Z,38.79
2018-06-13T13:17:31.445Z,38.06
2018-06-13T13:20:00.307Z,37.49
2018-06-13T13:22:29.012Z,36.03
2018-06-13T13:24:58.024Z,36.44
2018-06-13T13:27:26.712Z,33.98
2018-06-13T13:29:55.393Z,33.83
2018-06-13T13:32:24.089Z,33.22
2018-06-13T13:34:52.864Z,33.20
2018-06-13T13:37:28.257Z,32.23
2018-06-13T13:39:56.990Z,30.57
2018-06-13T13:42:25.812Z,30.20
2018-06-13T13:44:54.530Z,30.83
2018-06-13T13:47:23.236Z,32.53
2018-06-13T13:49:52.126Z,34.28
2018-06-13T13:52:20.937Z,37.18
2018-06-13T13:54:49.660Z,38.95
2018-06-13T13:57:18.440Z,39.90
2018-06-13T13:59:47.185Z,41.24
2018-06-13T14:02:16.345Z,41.89
2018-06-13T14:04:45.178Z,42.64
2018-06-13T14:07:13.962Z,42.37
2018-06-13T14:09:42.788Z,44.35
2018-06-13T14:12:11.795Z,43.29
2018-06-13T14:14:40.701Z,43.25
2018-06-13T14:17:09.409Z,42.99
2018-06-13T14:19:38.209Z,42.92
2018-06-13T14:22:07.080Z,41.14
2018-06-13T14:24:35.731Z,39.51
2018-06-13T14:27:04.649Z,38.26
2018-06-13T14:29:33.379Z,38.66
2018-06-13T14:32:02.065Z,37.67
2018-06-13T14:34:30.784Z,37.06
2018-06-13T14:36:59.559Z,37.12
2018-06-13T14:39:28.622Z,36.41
2018-06-13T14:41:57.421Z,36.99
2018-06-13T14:44:26.208Z,36.13
2018-06-13T14:46:54.948Z,36.24
2018-06-13T14:49:23.625Z,36.33
2018-06-13T14:51:55.199Z,37.41
2018-06-13T14:54:23.895Z,38.60
2018-06-13T14:56:52.728Z,38.50
2018-06-13T14:59:21.433Z,38.74
2018-06-13T15:01:50.688Z,39.99
2018-06-13T15:04:24.729Z,39.60
2018-06-13T15:06:53.489Z,40.83
2018-06-13T15:09:22.281Z,40.83
2018-06-13T15:11:51.100Z,41.36
2018-06-13T15:14:19.796Z,41.63
2018-06-13T15:16:48.744Z,41.67
2018-06-13T15:19:17.568Z,41.60
2018-06-13T15:21:46.471Z,41.42
2018-06-13T15:24:15.236Z,40.27
2018-06-13T15:26:44.192Z,39.89
2018-06-13T15:29:13.505Z,39.18
2018-06-13T15:31:42.288Z,38.67
2018-06-13T15:34:10.974Z,38.27
2018-06-13T15:36:39.815Z,39.55
2018-06-13T15:39:11.268Z,39.68
2018-06-13T15:41:40.148Z,39.89
2018-06-13T15:44:08.937Z,39.36
2018-06-13T15:46:37.792Z,39.10
2018-06-13T15:49:06.608Z,39.37
2018-06-13T15:51:35.392Z,39.08
2018-06-13T15:54:04.512Z,40.02
2018-06-13T15:56:33.283Z,40.12
2018-06-13T15:59:02.473Z,39.94
2018-06-13T16:01:31.548Z,40.16
2018-06-13T16:04:00.324Z,40.87
2018-06-13T16:06:29.265Z,40.75
2018-06-13T16:08:58.033Z,40.06
2018-06-13T16:11:26.995Z,40.69
2018-06-13T16:13:55.852Z,40.82
2018-06-13T16:16:24.626Z,41.29
2018-06-13T16:18:53.785Z,41.20
2018-06-13T16:21:22.673Z,41.15
2018-06-13T16:23:51.591Z,41.52
2018-06-13T16:26:20.373Z,40.91
2018-06-13T16:28:49.232Z,40.95
2018-06-13T16:31:18.621Z,41.22
2018-06-13T16:33:47.528Z,41.11
2018-06-13T16:36:16.574Z,41.89
2018-06-13T16:38:45.662Z,40.58
2018-06-13T16:41:14.962Z,41.16
2018-06-13T16:43:44.209Z,40.25
2018-06-13T16:46:13.004Z,40.49
2018-06-13T16:48:42.050Z,40.39
2018-06-13T16:51:21.884Z,40.87
2018-06-13T16:54:01.792Z,41.45
2018-06-13T16:56:30.993Z,41.21
2018-06-13T16:59:00.392Z,40.71
2018-06-13T17:01:29.352Z,42.87
2018-06-13T17:03:58.370Z,43.29
2018-06-13T17:06:42.025Z,43.16
2018-06-13T17:09:20.670Z,43.16
2018-06-13T17:12:11.408Z,42.81
2018-06-13T17:15:04.435Z,44.03
2018-06-13T17:17:54.842Z,43.42
2018-06-13T17:20:25.328Z,42.99
2018-06-13T17:22:58.173Z,43.75
2018-06-13T17:25:28.080Z,43.43
2018-06-13T17:27:58.101Z,44.16
2018-06-13T17:30:28.016Z,42.62
2018-06-13T17:32:58.428Z,42.70
2018-06-13T17:35:27.612Z,44.24
2018-06-13T17:37:56.762Z,44.28
2018-06-13T17:40:25.996Z,44.25
2018-06-13T17:42:54.804Z,44.60
2018-06-13T17:45:24.060Z,44.72
2018-06-13T17:47:53.046Z,45.21
2018-06-13T17:50:22.042Z,45.46
2018-06-13T17:52:51.213Z,45.09
2018-06-13T17:55:20.132Z,45.47
2018-06-13T17:57:49.273Z,45.84
2018-06-13T18:00:18.124Z,46.08
2018-06-13T18:02:47.548Z,46.45
2018-06-13T18:05:16.981Z,46.81
2018-06-13T18:07:46.176Z,46.69
2018-06-13T18:10:15.444Z,46.64
2018-06-13T18:12:44.221Z,46.37
2018-06-13T18:15:13.145Z,47.59
2018-06-13T18:17:41.931Z,47.40
2018-06-13T18:20:10.749Z,47.47
2018-06-13T18:22:39.864Z,46.97
2018-06-13T18:25:08.760Z,47.89
2018-06-13T18:27:37.562Z,47.18
2018-06-13T18:30:06.444Z,48.27
2018-06-13T18:32:35.551Z,49.18
2018-06-13T18:35:04.381Z,48.79
2018-06-13T18:37:33.061Z,48.90
2018-06-13T18:40:01.912Z,49.52
2018-06-13T18:42:30.676Z,49.10
2018-06-13T18:44:59.372Z,49.44
2018-06-13T18:47:28.206Z,49.43
2018-06-13T18:49:56.895Z,50.22
2018-06-13T18:52:25.582Z,49.73
2018-06-13T18:54:54.472Z,49.62
2018-06-13T18:57:23.221Z,50.41
2018-06-13T18:59:52.028Z,50.26
2018-06-13T19:02:20.805Z,50.52
2018-06-13T19:04:49.612Z,50.59
2018-06-13T19:07:18.548Z,50.72
2018-06-13T19:09:47.353Z,51.21
2018-06-13T19:12:16.470Z,51.49
2018-06-13T19:14:45.236Z,52.01
2018-06-13T19:17:14.448Z,51.74
2018-06-13T19:19:43.256Z,52.27
2018-06-13T19:22:12.121Z,51.87
2018-06-13T19:24:41.112Z,51.41
2018-06-13T19:27:09.958Z,52.03
2018-06-13T19:29:39.094Z,52.18
2018-06-13T19:32:10.106Z,52.06
2018-06-13T19:34:39.028Z,52.74
2018-06-13T19:37:09.366Z,52.48
2018-06-13T19:39:38.238Z,52.20
2018-06-13T19:42:07.192Z,52.99
2018-06-13T19:44:36.511Z,52.52
2018-06-13T19:47:10.528Z,52.87
2018-06-13T19:49:39.270Z,52.47
2018-06-13T19:52:09.040Z,52.10
2018-06-13T19:54:43.056Z,52.28
2018-06-13T19:57:11.749Z,52.33
2018-06-13T19:59:41.700Z,52.59
2018-06-13T20:02:11.445Z,52.46
2018-06-13T20:04:45.672Z,52.02
2018-06-13T20:07:14.810Z,52.04
2018-06-13T20:09:43.722Z,52.16
2018-06-13T20:12:55.489Z,51.94
2018-06-13T20:15:29.881Z,52.37
2018-06-13T20:18:05.277Z,52.30
2018-06-13T20:20:41.062Z,52.69
2018-06-13T20:23:09.809Z,52.66
2018-06-13T20:25:44.481Z,52.69
2018-06-13T20:28:18.965Z,52.79
2018-06-13T20:30:52.929Z,52.68
2018-06-13T20:33:21.739Z,52.64
2018-06-13T20:35:50.752Z,52.65
2018-06-13T20:38:20.952Z,52.84
2018-06-13T20:40:50.420Z,52.69
2018-06-13T20:43:20.505Z,52.78
2018-06-13T20:45:50.157Z,52.79
2018-06-13T20:48:20.874Z,52.71
2018-06-13T20:50:50.641Z,53.53
2018-06-13T20:53:19.988Z,53.58
2018-06-13T20:55:48.706Z,53.30
2018-06-13T20:58:18.491Z,53.17
2018-06-13T21:00:48.800Z,53.17
2018-06-13T21:03:17.512Z,53.17
2018-06-13T21:05:46.499Z,53.07
2018-06-13T21:08:15.456Z,53.04
2018-06-13T21:10:44.482Z,53.11
2018-06-13T21:13:13.328Z,53.71
2018-06-13T21:15:42.105Z,53.97
2018-06-13T21:18:11.324Z,54.01
2018-06-13T21:20:40.002Z,53.86
2018-06-13T21:23:08.681Z,53.48
2018-06-13T21:25:37.418Z,53.32
2018-06-13T21:28:06.164Z,53.56
2018-06-13T21:30:35.049Z,53.36
2018-06-13T21:33:03.733Z,53.40
2018-06-13T21:35:32.444Z,53.34
2018-06-13T21:38:01.192Z,54.76
2018-06-13T21:40:29.892Z,54.86
2018-06-13T21:42:58.687Z,55.08
2018-06-13T21:45:27.525Z,54.99
2018-06-13T21:47:56.449Z,54.91
2018-06-13T21:50:25.292Z,54.77
2018-06-13T21:52:54.128Z,54.65
2018-06-13T21:55:23.137Z,54.91
2018-06-13T21:57:51.997Z,55.18
2018-06-13T22:00:20.817Z,55.08
2018-06-13T22:02:49.677Z,55.15
2018-06-13T22:05:18.444Z,55.68
2018-06-13T22:07:47.296Z,55.79
2018-06-13T22:10:16.125Z,55.33
2018-06-13T22:12:45.050Z,56.27
2018-06-13T22:15:23.531Z,55.75
2018-06-13T22:17:52.628Z,55.59
2018-06-13T22:20:21.436Z,55.50
2018-06-13T22:22:50.317Z,54.68
2018-06-13T22:25:19.253Z,54.84
2018-06-13T22:27:48.069Z,55.46
2018-06-13T22:30:17.281Z,55.25
2018-06-13T22:32:46.519Z,55.75
2018-06-13T22:35:15.273Z,55.43
2018-06-13T22:37:44.177Z,55.33
2018-06-13T22:40:12.985Z,54.98
2018-06-13T22:42:41.737Z,54.72
2018-06-13T22:45:10.785Z,54.87
2018-06-13T22:47:39.552Z,55.20
2018-06-13T22:50:08.415Z,55.49
2018-06-13T22:52:37.337Z,55.84
2018-06-13T22:55:06.196Z,55.80
2018-06-13T22:57:35.292Z,56.14
2018-06-13T23:00:04.273Z,56.14
2018-06-13T23:02:33.062Z,55.63
2018-06-13T23:05:01.789Z,56.33
2018-06-13T23:07:30.768Z,56.41
2018-06-13T23:09:59.672Z,56.02
2018-06-13T23:12:28.432Z,56.21
2018-06-13T23:14:57.321Z,56.89
2018-06-13T23:17:26.236Z,56.89
2018-06-13T23:19:55.101Z,57.59
2018-06-13T23:22:24.092Z,58.35
2018-06-13T23:24:52.873Z,57.95
2018-06-13T23:27:21.603Z,58.06
2018-06-13T23:29:50.380Z,58.28
2018-06-13T23:32:19.120Z,57.48
2018-06-13T23:34:47.876Z,57.44
2018-06-13T23:37:16.717Z,57.16
2018-06-13T23:39:45.397Z,57.24
2018-06-13T23:42:14.157Z,57.23
2018-06-13T23:44:42.828Z,57.27
2018-06-13T23:47:11.557Z,57.51
2018-06-13T23:49:40.241Z,57.18
2018-06-13T23:52:08.931Z,57.82
2018-06-13T23:54:37.752Z,58.20
2018-06-13T23:57:06.545Z,57.99
2018-06-13T23:59:35.717Z,57.53
